sensor_id;sensor_type;location;lat;lon;timestamp;P1;durP1;ratioP1;P2;durP2;ratioP2
23866;SDS011;12114;53.404;-1.502;2023-06-14T00:00:09;8.55;;;4.80;;
23866;SDS011;12114;53.404;-1.502;2023-06-14T00:02:55;7.72;;;4.20;;
23866;SDS011;12114;53.404;-1.502;2023-06-14T00:05:39;10.07;;;4.68;;
23866;SDS011;12114;53.404;-1.502;2023-06-14T00:08:26;9.40;;;4.10;;
23866;SDS011;12114;53.404;-1.502;2023-06-14T00:11:10;6.22;;;4.30;;
23866;SDS011;12114;53.404;-1.502;2023-06-14T00:13:54;10.82;;;4.95;;
23866;SDS011;12114;53.404;-1.502;2023-06-14T00:16:39;10.02;;;5.15;;
23866;SDS011;12114;53.404;-1.502;2023-06-14T00:19:26;8.95;;;4.53;;
23866;SDS011;12114;53.404;-1.502;2023-06-14T00:22:10;10.27;;;4.85;;
23866;SDS011;12114;53.404;-1.502;2023-06-14T00:24:54;9.35;;;4.93;;
23866;SDS011;12114;53.404;-1.502;2023-06-14T00:27:38;11.32;;;4.65;;
23866;SDS011;12114;53.404;-1.502;2023-06-14T00:30:22;9.02;;;4.72;;
23866;SDS011;12114;53.404;-1.502;2023-06-14T00:33:07;10.25;;;4.80;;
23866;SDS011;12114;53.404;-1.502;2023-06-14T00:35:51;9.63;;;4.55;;
23866;SDS011;12114;53.404;-1.502;2023-06-14T00:38:37;7.53;;;4.93;;
23866;SDS011;12114;53.404;-1.502;2023-06-14T00:41:21;10.13;;;5.25;;
23866;SDS011;12114;53.404;-1.502;2023-06-14T00:44:05;10.38;;;4.47;;
23866;SDS011;12114;53.404;-1.502;2023-06-14T00:46:50;9.55;;;4.50;;
23866;SDS011;12114;53.404;-1.502;2023-06-14T00:49:33;8.23;;;4.40;;
23866;SDS011;12114;53.404;-1.502;2023-06-14T00:52:17;6.75;;;4.47;;
23866;SDS011;12114;53.404;-1.502;2023-06-14T00:55:02;10.88;;;5.30;;
23866;SDS011;12114;53.404;-1.502;2023-06-14T00:57:46;6.22;;;4.63;;
23866;SDS011;12114;53.404;-1.502;2023-06-14T01:00:31;9.43;;;5.28;;
23866;SDS011;12114;53.404;-1.502;2023-06-14T01:03:15;7.82;;;5.07;;
23866;SDS011;12114;53.404;-1.502;2023-06-14T01:12:04;6.70;;;4.43;;
23866;SDS011;12114;53.404;-1.502;2023-06-14T01:14:51;9.20;;;4.70;;
23866;SDS011;12114;53.404;-1.502;2023-06-14T01:17:36;9.73;;;4.72;;
23866;SDS011;12114;53.404;-1.502;2023-06-14T01:20:27;9.38;;;5.07;;
23866;SDS011;12114;53.404;-1.502;2023-06-14T01:23:11;10.32;;;5.07;;
23866;SDS011;12114;53.404;-1.502;2023-06-14T01:25:59;10.82;;;5.60;;
23866;SDS011;12114;53.404;-1.502;2023-06-14T01:28:43;7.25;;;4.70;;
23866;SDS011;12114;53.404;-1.502;2023-06-14T01:31:32;8.93;;;4.95;;
23866;SDS011;12114;53.404;-1.502;2023-06-14T01:34:24;9.75;;;5.20;;
23866;SDS011;12114;53.404;-1.502;2023-06-14T01:37:08;8.63;;;5.13;;
23866;SDS011;12114;53.404;-1.502;2023-06-14T01:39:53;8.48;;;5.70;;
23866;SDS011;12114;53.404;-1.502;2023-06-14T01:42:38;10.07;;;5.47;;
23866;SDS011;12114;53.404;-1.502;2023-06-14T01:45:22;8.43;;;4.82;;
23866;SDS011;12114;53.404;-1.502;2023-06-14T01:48:07;8.43;;;4.90;;
23866;SDS011;12114;53.404;-1.502;2023-06-14T01:50:51;10.65;;;5.28;;
23866;SDS011;12114;53.404;-1.502;2023-06-14T01:53:35;8.68;;;5.57;;
23866;SDS011;12114;53.404;-1.502;2023-06-14T01:56:19;6.53;;;4.95;;
23866;SDS011;12114;53.404;-1.502;2023-06-14T01:59:03;9.63;;;5.32;;
23866;SDS011;12114;53.404;-1.502;2023-06-14T02:01:47;10.10;;;5.55;;
23866;SDS011;12114;53.404;-1.502;2023-06-14T02:04:31;10.90;;;5.35;;
23866;SDS011;12114;53.404;-1.502;2023-06-14T02:07:15;11.65;;;5.63;;
23866;SDS011;12114;53.404;-1.502;2023-06-14T02:09:59;11.82;;;5.72;;
23866;SDS011;12114;53.404;-1.502;2023-06-14T02:12:43;11.43;;;5.60;;
23866;SDS011;12114;53.404;-1.502;2023-06-14T02:15:27;12.35;;;5.47;;
23866;SDS011;12114;53.404;-1.502;2023-06-14T02:18:17;12.02;;;5.43;;
23866;SDS011;12114;53.404;-1.502;2023-06-14T02:21:01;9.85;;;5.78;;
23866;SDS011;12114;53.404;-1.502;2023-06-14T02:23:45;10.77;;;6.25;;
23866;SDS011;12114;53.404;-1.502;2023-06-14T02:26:29;10.05;;;5.13;;
23866;SDS011;12114;53.404;-1.502;2023-06-14T02:29:13;9.20;;;5.20;;
23866;SDS011;12114;53.404;-1.502;2023-06-14T02:31:58;13.55;;;5.60;;
23866;SDS011;12114;53.404;-1.502;2023-06-14T02:34:42;11.82;;;5.10;;
23866;SDS011;12114;53.404;-1.502;2023-06-14T02:37:27;9.98;;;6.03;;
23866;SDS011;12114;53.404;-1.502;2023-06-14T02:40:11;14.35;;;5.57;;
23866;SDS011;12114;53.404;-1.502;2023-06-14T02:42:55;11.38;;;5.65;;
23866;SDS011;12114;53.404;-1.502;2023-06-14T02:45:39;9.63;;;5.80;;
23866;SDS011;12114;53.404;-1.502;2023-06-14T02:48:24;13.63;;;5.80;;
23866;SDS011;12114;53.404;-1.502;2023-06-14T02:51:08;9.40;;;5.40;;
23866;SDS011;12114;53.404;-1.502;2023-06-14T02:53:53;9.32;;;5.18;;
23866;SDS011;12114;53.404;-1.502;2023-06-14T02:56:37;10.43;;;5.82;;
23866;SDS011;12114;53.404;-1.502;2023-06-14T02:59:20;6.38;;;4.93;;
23866;SDS011;12114;53.404;-1.502;2023-06-14T03:02:05;11.02;;;5.45;;
23866;SDS011;12114;53.404;-1.502;2023-06-14T03:04:49;11.43;;;5.63;;
23866;SDS011;12114;53.404;-1.502;2023-06-14T03:07:34;13.35;;;5.50;;
23866;SDS011;12114;53.404;-1.502;2023-06-14T03:10:18;10.70;;;6.05;;
23866;SDS011;12114;53.404;-1.502;2023-06-14T03:13:02;10.00;;;5.68;;
23866;SDS011;12114;53.404;-1.502;2023-06-14T03:15:47;12.45;;;5.97;;
23866;SDS011;12114;53.404;-1.502;2023-06-14T03:18:34;9.82;;;5.88;;
23866;SDS011;12114;53.404;-1.502;2023-06-14T03:21:19;12.15;;;5.47;;
23866;SDS011;12114;53.404;-1.502;2023-06-14T03:24:04;7.75;;;5.68;;
23866;SDS011;12114;53.404;-1.502;2023-06-14T03:26:48;11.30;;;6.47;;
23866;SDS011;12114;53.404;-1.502;2023-06-14T03:29:32;8.85;;;5.38;;
23866;SDS011;12114;53.404;-1.502;2023-06-14T03:32:16;10.38;;;5.70;;
23866;SDS011;12114;53.404;-1.502;2023-06-14T03:35:00;11.05;;;5.10;;
23866;SDS011;12114;53.404;-1.502;2023-06-14T03:37:45;11.80;;;5.85;;
23866;SDS011;12114;53.404;-1.502;2023-06-14T03:40:29;8.77;;;5.30;;
23866;SDS011;12114;53.404;-1.502;2023-06-14T03:43:13;9.07;;;5.22;;
23866;SDS011;12114;53.404;-1.502;2023-06-14T03:45:57;11.70;;;5.57;;
23866;SDS011;12114;53.404;-1.502;2023-06-14T03:48:41;8.82;;;5.10;;
23866;SDS011;12114;53.404;-1.502;2023-06-14T03:51:25;7.15;;;5.15;;
23866;SDS011;12114;53.404;-1.502;2023-06-14T03:54:10;11.85;;;5.43;;
23866;SDS011;12114;53.404;-1.502;2023-06-14T03:56:54;8.20;;;5.07;;
23866;SDS011;12114;53.404;-1.502;2023-06-14T03:59:38;8.45;;;5.18;;
23866;SDS011;12114;53.404;-1.502;2023-06-14T04:02:21;7.03;;;4.82;;
23866;SDS011;12114;53.404;-1.502;2023-06-14T04:05:06;9.07;;;5.07;;
23866;SDS011;12114;53.404;-1.502;2023-06-14T04:10:39;8.10;;;4.88;;
23866;SDS011;12114;53.404;-1.502;2023-06-14T04:13:23;10.20;;;4.63;;
23866;SDS011;12114;53.404;-1.502;2023-06-14T04:16:07;7.10;;;5.00;;
23866;SDS011;12114;53.404;-1.502;2023-06-14T04:18:51;9.50;;;5.18;;
23866;SDS011;12114;53.404;-1.502;2023-06-14T04:21:36;10.40;;;5.45;;
23866;SDS011;12114;53.404;-1.502;2023-06-14T04:24:19;10.80;;;5.18;;
23866;SDS011;12114;53.404;-1.502;2023-06-14T04:27:04;8.80;;;5.00;;
23866;SDS011;12114;53.404;-1.502;2023-06-14T04:29:47;9.82;;;5.45;;
23866;SDS011;12114;53.404;-1.502;2023-06-14T04:32:36;9.43;;;4.50;;
23866;SDS011;12114;53.404;-1.502;2023-06-14T04:35:24;8.35;;;4.60;;
23866;SDS011;12114;53.404;-1.502;2023-06-14T04:38:08;8.60;;;4.63;;
23866;SDS011;12114;53.404;-1.502;2023-06-14T04:40:52;11.65;;;5.10;;
23866;SDS011;12114;53.404;-1.502;2023-06-14T04:43:37;11.38;;;4.90;;
23866;SDS011;12114;53.404;-1.502;2023-06-14T04:46:21;8.70;;;4.63;;
23866;SDS011;12114;53.404;-1.502;2023-06-14T04:49:05;7.75;;;4.95;;
23866;SDS011;12114;53.404;-1.502;2023-06-14T04:51:49;7.95;;;4.18;;
23866;SDS011;12114;53.404;-1.502;2023-06-14T04:54:40;10.80;;;4.53;;
23866;SDS011;12114;53.404;-1.502;2023-06-14T04:57:28;6.97;;;4.90;;
23866;SDS011;12114;53.404;-1.502;2023-06-14T05:00:12;9.43;;;4.70;;
23866;SDS011;12114;53.404;-1.502;2023-06-14T05:02:57;4.80;;;3.88;;
23866;SDS011;12114;53.404;-1.502;2023-06-14T05:05:41;8.02;;;4.40;;
23866;SDS011;12114;53.404;-1.502;2023-06-14T05:08:24;7.75;;;4.55;;
23866;SDS011;12114;53.404;-1.502;2023-06-14T05:11:09;7.95;;;4.55;;
23866;SDS011;12114;53.404;-1.502;2023-06-14T05:13:53;9.40;;;4.03;;
23866;SDS011;12114;53.404;-1.502;2023-06-14T05:16:37;7.30;;;3.90;;
23866;SDS011;12114;53.404;-1.502;2023-06-14T05:19:21;8.13;;;4.50;;
23866;SDS011;12114;53.404;-1.502;2023-06-14T05:22:05;9.07;;;3.45;;
23866;SDS011;12114;53.404;-1.502;2023-06-14T05:24:49;9.30;;;4.03;;
23866;SDS011;12114;53.404;-1.502;2023-06-14T05:27:33;7.93;;;4.13;;
23866;SDS011;12114;53.404;-1.502;2023-06-14T05:33:03;8.45;;;3.88;;
23866;SDS011;12114;53.404;-1.502;2023-06-14T05:35:48;7.78;;;4.00;;
23866;SDS011;12114;53.404;-1.502;2023-06-14T05:38:32;6.50;;;4.03;;
23866;SDS011;12114;53.404;-1.502;2023-06-14T05:41:16;7.13;;;3.53;;
23866;SDS011;12114;53.404;-1.502;2023-06-14T05:44:00;7.85;;;3.92;;
23866;SDS011;12114;53.404;-1.502;2023-06-14T05:46:44;11.00;;;4.28;;
23866;SDS011;12114;53.404;-1.502;2023-06-14T05:49:28;11.50;;;4.40;;
23866;SDS011;12114;53.404;-1.502;2023-06-14T05:52:12;9.35;;;4.07;;
23866;SDS011;12114;53.404;-1.502;2023-06-14T05:54:56;12.18;;;4.10;;
23866;SDS011;12114;53.404;-1.502;2023-06-14T05:57:40;8.82;;;4.10;;
23866;SDS011;12114;53.404;-1.502;2023-06-14T06:00:25;9.35;;;4.13;;
23866;SDS011;12114;53.404;-1.502;2023-06-14T06:03:09;8.43;;;3.60;;
23866;SDS011;12114;53.404;-1.502;2023-06-14T06:05:53;8.77;;;3.70;;
23866;SDS011;12114;53.404;-1.502;2023-06-14T06:08:37;11.07;;;3.97;;
23866;SDS011;12114;53.404;-1.502;2023-06-14T06:11:21;8.07;;;3.40;;
23866;SDS011;12114;53.404;-1.502;2023-06-14T06:14:05;7.10;;;3.63;;
23866;SDS011;12114;53.404;-1.502;2023-06-14T06:16:49;8.15;;;3.38;;
23866;SDS011;12114;53.404;-1.502;2023-06-14T06:19:33;10.13;;;4.10;;
23866;SDS011;12114;53.404;-1.502;2023-06-14T06:22:16;9.15;;;3.92;;
23866;SDS011;12114;53.404;-1.502;2023-06-14T06:25:00;12.23;;;3.65;;
23866;SDS011;12114;53.404;-1.502;2023-06-14T06:27:45;5.68;;;3.20;;
23866;SDS011;12114;53.404;-1.502;2023-06-14T06:30:29;10.60;;;4.00;;
23866;SDS011;12114;53.404;-1.502;2023-06-14T06:33:13;9.73;;;3.42;;
23866;SDS011;12114;53.404;-1.502;2023-06-14T06:35:57;10.70;;;3.67;;
23866;SDS011;12114;53.404;-1.502;2023-06-14T06:38:41;7.70;;;3.35;;
23866;SDS011;12114;53.404;-1.502;2023-06-14T06:41:25;7.75;;;3.60;;
23866;SDS011;12114;53.404;-1.502;2023-06-14T06:44:10;10.07;;;3.50;;
23866;SDS011;12114;53.404;-1.502;2023-06-14T06:46:54;6.82;;;3.13;;
23866;SDS011;12114;53.404;-1.502;2023-06-14T06:49:38;7.97;;;3.38;;
23866;SDS011;12114;53.404;-1.502;2023-06-14T06:52:22;10.82;;;3.20;;
23866;SDS011;12114;53.404;-1.502;2023-06-14T06:55:06;11.82;;;3.72;;
23866;SDS011;12114;53.404;-1.502;2023-06-14T06:57:50;7.43;;;3.30;;
23866;SDS011;12114;53.404;-1.502;2023-06-14T07:00:36;9.65;;;3.40;;
23866;SDS011;12114;53.404;-1.502;2023-06-14T07:03:20;11.07;;;3.60;;
23866;SDS011;12114;53.404;-1.502;2023-06-14T07:06:04;11.43;;;3.33;;
23866;SDS011;12114;53.404;-1.502;2023-06-14T07:08:48;12.07;;;3.38;;
23866;SDS011;12114;53.404;-1.502;2023-06-14T07:11:32;9.18;;;3.72;;
23866;SDS011;12114;53.404;-1.502;2023-06-14T07:14:16;13.45;;;3.40;;
23866;SDS011;12114;53.404;-1.502;2023-06-14T07:17:00;8.48;;;3.33;;
23866;SDS011;12114;53.404;-1.502;2023-06-14T07:19:44;8.55;;;3.50;;
23866;SDS011;12114;53.404;-1.502;2023-06-14T07:22:28;7.85;;;3.42;;
23866;SDS011;12114;53.404;-1.502;2023-06-14T07:25:12;8.82;;;3.90;;
23866;SDS011;12114;53.404;-1.502;2023-06-14T07:27:57;10.25;;;3.92;;
23866;SDS011;12114;53.404;-1.502;2023-06-14T07:30:41;10.48;;;3.47;;
23866;SDS011;12114;53.404;-1.502;2023-06-14T07:33:25;8.30;;;3.30;;
23866;SDS011;12114;53.404;-1.502;2023-06-14T07:36:09;9.05;;;2.83;;
23866;SDS011;12114;53.404;-1.502;2023-06-14T07:38:53;8.88;;;3.15;;
23866;SDS011;12114;53.404;-1.502;2023-06-14T07:41:37;7.18;;;3.00;;
23866;SDS011;12114;53.404;-1.502;2023-06-14T07:44:21;6.30;;;2.92;;
23866;SDS011;12114;53.404;-1.502;2023-06-14T07:47:05;10.02;;;3.55;;
23866;SDS011;12114;53.404;-1.502;2023-06-14T07:49:49;8.35;;;2.78;;
23866;SDS011;12114;53.404;-1.502;2023-06-14T07:52:33;10.98;;;2.90;;
23866;SDS011;12114;53.404;-1.502;2023-06-14T07:55:17;11.80;;;2.90;;
23866;SDS011;12114;53.404;-1.502;2023-06-14T07:58:11;10.07;;;2.97;;
23866;SDS011;12114;53.404;-1.502;2023-06-14T08:00:55;6.28;;;2.58;;
23866;SDS011;12114;53.404;-1.502;2023-06-14T08:03:39;10.68;;;2.80;;
23866;SDS011;12114;53.404;-1.502;2023-06-14T08:06:23;11.55;;;3.08;;
23866;SDS011;12114;53.404;-1.502;2023-06-14T08:09:07;8.15;;;3.17;;
23866;SDS011;12114;53.404;-1.502;2023-06-14T08:11:51;9.43;;;2.88;;
23866;SDS011;12114;53.404;-1.502;2023-06-14T08:14:35;10.13;;;3.00;;
23866;SDS011;12114;53.404;-1.502;2023-06-14T08:17:19;10.82;;;3.45;;
23866;SDS011;12114;53.404;-1.502;2023-06-14T08:20:03;8.63;;;3.55;;
23866;SDS011;12114;53.404;-1.502;2023-06-14T08:22:50;7.97;;;2.92;;
23866;SDS011;12114;53.404;-1.502;2023-06-14T08:25:39;12.80;;;2.97;;
23866;SDS011;12114;53.404;-1.502;2023-06-14T08:28:24;10.70;;;3.08;;
23866;SDS011;12114;53.404;-1.502;2023-06-14T08:31:08;11.52;;;2.80;;
23866;SDS011;12114;53.404;-1.502;2023-06-14T08:33:52;10.45;;;3.30;;
23866;SDS011;12114;53.404;-1.502;2023-06-14T08:36:36;9.32;;;3.50;;
23866;SDS011;12114;53.404;-1.502;2023-06-14T08:39:20;12.13;;;3.65;;
23866;SDS011;12114;53.404;-1.502;2023-06-14T08:42:05;8.83;;;3.27;;
23866;SDS011;12114;53.404;-1.502;2023-06-14T08:44:51;8.38;;;2.83;;
23866;SDS011;12114;53.404;-1.502;2023-06-14T08:47:35;13.10;;;2.92;;
23866;SDS011;12114;53.404;-1.502;2023-06-14T08:50:20;10.35;;;3.25;;
23866;SDS011;12114;53.404;-1.502;2023-06-14T08:53:05;13.30;;;3.50;;
23866;SDS011;12114;53.404;-1.502;2023-06-14T08:55:50;12.37;;;3.20;;
23866;SDS011;12114;53.404;-1.502;2023-06-14T08:58:34;12.35;;;3.33;;
23866;SDS011;12114;53.404;-1.502;2023-06-14T09:01:20;6.35;;;2.88;;
23866;SDS011;12114;53.404;-1.502;2023-06-14T09:06:49;9.98;;;3.22;;
23866;SDS011;12114;53.404;-1.502;2023-06-14T09:09:39;14.07;;;3.00;;
23866;SDS011;12114;53.404;-1.502;2023-06-14T09:12:25;12.70;;;3.03;;
23866;SDS011;12114;53.404;-1.502;2023-06-14T09:15:09;8.70;;;3.35;;
23866;SDS011;12114;53.404;-1.502;2023-06-14T09:17:53;6.97;;;3.05;;
23866;SDS011;12114;53.404;-1.502;2023-06-14T09:20:37;15.23;;;3.70;;
23866;SDS011;12114;53.404;-1.502;2023-06-14T09:26:17;8.88;;;3.20;;
23866;SDS011;12114;53.404;-1.502;2023-06-14T09:29:04;15.10;;;3.60;;
23866;SDS011;12114;53.404;-1.502;2023-06-14T09:31:49;12.90;;;3.33;;
23866;SDS011;12114;53.404;-1.502;2023-06-14T09:34:34;9.23;;;3.40;;
23866;SDS011;12114;53.404;-1.502;2023-06-14T09:37:28;10.43;;;3.13;;
23866;SDS011;12114;53.404;-1.502;2023-06-14T09:40:13;15.18;;;3.22;;
23866;SDS011;12114;53.404;-1.502;2023-06-14T09:42:56;11.07;;;3.17;;
23866;SDS011;12114;53.404;-1.502;2023-06-14T09:45:41;13.80;;;2.72;;
23866;SDS011;12114;53.404;-1.502;2023-06-14T09:48:29;12.23;;;3.03;;
23866;SDS011;12114;53.404;-1.502;2023-06-14T09:51:13;11.35;;;2.85;;
23866;SDS011;12114;53.404;-1.502;2023-06-14T09:53:59;14.50;;;2.72;;
23866;SDS011;12114;53.404;-1.502;2023-06-14T09:56:49;12.45;;;2.72;;
23866;SDS011;12114;53.404;-1.502;2023-06-14T09:59:34;10.93;;;3.03;;
23866;SDS011;12114;53.404;-1.502;2023-06-14T10:07:48;8.20;;;2.85;;
23866;SDS011;12114;53.404;-1.502;2023-06-14T10:10:38;15.10;;;2.97;;
23866;SDS011;12114;53.404;-1.502;2023-06-14T10:13:22;10.57;;;2.90;;
23866;SDS011;12114;53.404;-1.502;2023-06-14T10:16:17;8.77;;;2.67;;
23866;SDS011;12114;53.404;-1.502;2023-06-14T10:19:06;13.57;;;2.75;;
23866;SDS011;12114;53.404;-1.502;2023-06-14T10:21:59;8.45;;;2.60;;
23866;SDS011;12114;53.404;-1.502;2023-06-14T10:24:45;10.40;;;2.47;;
23866;SDS011;12114;53.404;-1.502;2023-06-14T10:27:29;5.80;;;2.42;;
23866;SDS011;12114;53.404;-1.502;2023-06-14T10:30:14;15.77;;;2.90;;
23866;SDS011;12114;53.404;-1.502;2023-06-14T10:33:08;7.07;;;2.25;;
23866;SDS011;12114;53.404;-1.502;2023-06-14T10:39:18;16.17;;;3.20;;
23866;SDS011;12114;53.404;-1.502;2023-06-14T10:42:01;12.85;;;2.85;;
23866;SDS011;12114;53.404;-1.502;2023-06-14T10:47:35;9.63;;;3.15;;
23866;SDS011;12114;53.404;-1.502;2023-06-14T10:50:27;9.75;;;2.65;;
23866;SDS011;12114;53.404;-1.502;2023-06-14T10:53:23;16.67;;;3.30;;
23866;SDS011;12114;53.404;-1.502;2023-06-14T10:56:07;6.70;;;2.88;;
23866;SDS011;12114;53.404;-1.502;2023-06-14T10:58:51;8.95;;;2.90;;
23866;SDS011;12114;53.404;-1.502;2023-06-14T11:01:40;9.95;;;2.63;;
23866;SDS011;12114;53.404;-1.502;2023-06-14T11:04:33;7.32;;;2.85;;
23866;SDS011;12114;53.404;-1.502;2023-06-14T11:10:26;10.25;;;2.67;;
23866;SDS011;12114;53.404;-1.502;2023-06-14T11:13:15;7.53;;;2.35;;
23866;SDS011;12114;53.404;-1.502;2023-06-14T11:16:00;8.60;;;2.45;;
23866;SDS011;12114;53.404;-1.502;2023-06-14T11:18:44;12.52;;;2.53;;
23866;SDS011;12114;53.404;-1.502;2023-06-14T11:21:28;5.22;;;1.95;;
23866;SDS011;12114;53.404;-1.502;2023-06-14T11:24:16;4.82;;;2.20;;
23866;SDS011;12114;53.404;-1.502;2023-06-14T11:29:48;7.50;;;2.13;;
23866;SDS011;12114;53.404;-1.502;2023-06-14T11:32:32;13.13;;;2.33;;
23866;SDS011;12114;53.404;-1.502;2023-06-14T11:35:16;9.70;;;2.58;;
23866;SDS011;12114;53.404;-1.502;2023-06-14T11:38:01;7.30;;;2.03;;
23866;SDS011;12114;53.404;-1.502;2023-06-14T11:40:45;4.72;;;2.38;;
23866;SDS011;12114;53.404;-1.502;2023-06-14T11:43:29;5.40;;;2.25;;
23866;SDS011;12114;53.404;-1.502;2023-06-14T11:46:16;9.18;;;2.70;;
23866;SDS011;12114;53.404;-1.502;2023-06-14T11:49:00;8.02;;;2.47;;
23866;SDS011;12114;53.404;-1.502;2023-06-14T11:51:47;9.48;;;2.30;;
23866;SDS011;12114;53.404;-1.502;2023-06-14T11:54:31;8.30;;;2.60;;
23866;SDS011;12114;53.404;-1.502;2023-06-14T11:57:17;7.22;;;2.35;;
23866;SDS011;12114;53.404;-1.502;2023-06-14T12:00:08;9.63;;;2.83;;
23866;SDS011;12114;53.404;-1.502;2023-06-14T12:02:56;9.85;;;2.97;;
23866;SDS011;12114;53.404;-1.502;2023-06-14T12:05:40;9.85;;;2.72;;
23866;SDS011;12114;53.404;-1.502;2023-06-14T12:08:24;7.75;;;2.33;;
23866;SDS011;12114;53.404;-1.502;2023-06-14T12:11:17;10.15;;;2.40;;
23866;SDS011;12114;53.404;-1.502;2023-06-14T12:14:02;8.80;;;2.33;;
23866;SDS011;12114;53.404;-1.502;2023-06-14T12:16:47;8.63;;;2.95;;
23866;SDS011;12114;53.404;-1.502;2023-06-14T12:19:31;10.43;;;2.70;;
23866;SDS011;12114;53.404;-1.502;2023-06-14T12:22:16;10.30;;;2.35;;
23866;SDS011;12114;53.404;-1.502;2023-06-14T12:24:59;4.72;;;2.40;;
23866;SDS011;12114;53.404;-1.502;2023-06-14T12:27:43;4.88;;;2.22;;
23866;SDS011;12114;53.404;-1.502;2023-06-14T12:30:27;5.75;;;2.20;;
23866;SDS011;12114;53.404;-1.502;2023-06-14T12:33:11;8.77;;;2.80;;
23866;SDS011;12114;53.404;-1.502;2023-06-14T12:35:55;9.68;;;2.42;;
23866;SDS011;12114;53.404;-1.502;2023-06-14T12:38:42;7.95;;;2.30;;
23866;SDS011;12114;53.404;-1.502;2023-06-14T12:41:26;8.57;;;2.55;;
23866;SDS011;12114;53.404;-1.502;2023-06-14T12:44:11;8.23;;;2.13;;
23866;SDS011;12114;53.404;-1.502;2023-06-14T12:46:55;5.57;;;2.25;;
23866;SDS011;12114;53.404;-1.502;2023-06-14T12:49:39;6.90;;;2.35;;
23866;SDS011;12114;53.404;-1.502;2023-06-14T12:52:24;5.10;;;2.35;;
23866;SDS011;12114;53.404;-1.502;2023-06-14T12:55:08;7.07;;;2.13;;
23866;SDS011;12114;53.404;-1.502;2023-06-14T12:57:52;6.88;;;2.55;;
23866;SDS011;12114;53.404;-1.502;2023-06-14T13:00:35;8.48;;;2.28;;
23866;SDS011;12114;53.404;-1.502;2023-06-14T13:03:20;8.50;;;2.63;;
23866;SDS011;12114;53.404;-1.502;2023-06-14T13:06:04;8.75;;;2.50;;
23866;SDS011;12114;53.404;-1.502;2023-06-14T13:08:49;11.63;;;2.30;;
23866;SDS011;12114;53.404;-1.502;2023-06-14T13:11:36;8.40;;;2.10;;
23866;SDS011;12114;53.404;-1.502;2023-06-14T13:14:20;10.63;;;2.20;;
23866;SDS011;12114;53.404;-1.502;2023-06-14T13:17:04;9.02;;;2.08;;
23866;SDS011;12114;53.404;-1.502;2023-06-14T13:19:49;5.60;;;2.08;;
23866;SDS011;12114;53.404;-1.502;2023-06-14T13:22:33;8.23;;;2.40;;
23866;SDS011;12114;53.404;-1.502;2023-06-14T13:25:17;10.90;;;2.30;;
23866;SDS011;12114;53.404;-1.502;2023-06-14T13:28:02;6.43;;;1.65;;
23866;SDS011;12114;53.404;-1.502;2023-06-14T13:30:45;7.90;;;1.88;;
23866;SDS011;12114;53.404;-1.502;2023-06-14T13:33:29;8.10;;;2.20;;
23866;SDS011;12114;53.404;-1.502;2023-06-14T13:36:13;7.35;;;1.92;;
23866;SDS011;12114;53.404;-1.502;2023-06-14T13:38:57;8.18;;;2.13;;
23866;SDS011;12114;53.404;-1.502;2023-06-14T13:41:42;6.32;;;1.95;;
23866;SDS011;12114;53.404;-1.502;2023-06-14T13:44:26;8.23;;;1.98;;
23866;SDS011;12114;53.404;-1.502;2023-06-14T13:47:10;5.38;;;2.03;;
23866;SDS011;12114;53.404;-1.502;2023-06-14T13:49:54;6.57;;;1.70;;
23866;SDS011;12114;53.404;-1.502;2023-06-14T13:52:38;9.82;;;2.00;;
23866;SDS011;12114;53.404;-1.502;2023-06-14T13:55:22;4.75;;;1.80;;
23866;SDS011;12114;53.404;-1.502;2023-06-14T13:58:06;7.10;;;2.05;;
23866;SDS011;12114;53.404;-1.502;2023-06-14T14:00:50;7.53;;;2.03;;
23866;SDS011;12114;53.404;-1.502;2023-06-14T14:03:34;8.80;;;2.30;;
23866;SDS011;12114;53.404;-1.502;2023-06-14T14:06:18;6.40;;;1.83;;
23866;SDS011;12114;53.404;-1.502;2023-06-14T14:09:02;9.50;;;2.00;;
23866;SDS011;12114;53.404;-1.502;2023-06-14T14:11:46;8.77;;;2.20;;
23866;SDS011;12114;53.404;-1.502;2023-06-14T14:14:32;8.32;;;2.17;;
23866;SDS011;12114;53.404;-1.502;2023-06-14T14:17:16;8.10;;;2.45;;
23866;SDS011;12114;53.404;-1.502;2023-06-14T14:20:00;6.53;;;1.83;;
23866;SDS011;12114;53.404;-1.502;2023-06-14T14:22:44;8.13;;;2.10;;
23866;SDS011;12114;53.404;-1.502;2023-06-14T14:25:28;8.23;;;2.38;;
23866;SDS011;12114;53.404;-1.502;2023-06-14T14:28:12;7.90;;;2.10;;
23866;SDS011;12114;53.404;-1.502;2023-06-14T14:30:57;3.50;;;1.40;;
23866;SDS011;12114;53.404;-1.502;2023-06-14T14:33:41;9.85;;;1.98;;
23866;SDS011;12114;53.404;-1.502;2023-06-14T14:36:25;2.88;;;1.63;;
23866;SDS011;12114;53.404;-1.502;2023-06-14T14:39:09;3.40;;;1.80;;
23866;SDS011;12114;53.404;-1.502;2023-06-14T14:41:53;4.00;;;1.85;;
23866;SDS011;12114;53.404;-1.502;2023-06-14T14:44:37;5.20;;;1.50;;
23866;SDS011;12114;53.404;-1.502;2023-06-14T14:47:21;5.15;;;1.90;;
23866;SDS011;12114;53.404;-1.502;2023-06-14T14:50:05;12.65;;;2.50;;
23866;SDS011;12114;53.404;-1.502;2023-06-14T14:52:52;9.07;;;1.70;;
23866;SDS011;12114;53.404;-1.502;2023-06-14T14:55:36;9.20;;;1.60;;
23866;SDS011;12114;53.404;-1.502;2023-06-14T14:58:21;7.43;;;1.30;;
23866;SDS011;12114;53.404;-1.502;2023-06-14T15:01:05;6.88;;;1.17;;
23866;SDS011;12114;53.404;-1.502;2023-06-14T15:03:52;7.40;;;1.40;;
23866;SDS011;12114;53.404;-1.502;2023-06-14T15:06:36;5.20;;;1.60;;
23866;SDS011;12114;53.404;-1.502;2023-06-14T15:09:21;3.70;;;1.55;;
23866;SDS011;12114;53.404;-1.502;2023-06-14T15:12:06;4.50;;;1.45;;
23866;SDS011;12114;53.404;-1.502;2023-06-14T15:14:51;7.85;;;1.65;;
23866;SDS011;12114;53.404;-1.502;2023-06-14T15:17:37;6.25;;;1.45;;
23866;SDS011;12114;53.404;-1.502;2023-06-14T15:20:22;5.53;;;1.40;;
23866;SDS011;12114;53.404;-1.502;2023-06-14T15:23:06;4.72;;;1.40;;
23866;SDS011;12114;53.404;-1.502;2023-06-14T15:25:50;6.10;;;1.50;;
23866;SDS011;12114;53.404;-1.502;2023-06-14T15:28:35;3.55;;;1.98;;
23866;SDS011;12114;53.404;-1.502;2023-06-14T15:31:19;8.30;;;1.70;;
23866;SDS011;12114;53.404;-1.502;2023-06-14T15:34:03;5.18;;;1.60;;
23866;SDS011;12114;53.404;-1.502;2023-06-14T15:36:47;5.82;;;1.30;;
23866;SDS011;12114;53.404;-1.502;2023-06-14T15:39:31;3.85;;;1.80;;
23866;SDS011;12114;53.404;-1.502;2023-06-14T15:42:15;4.18;;;1.40;;
23866;SDS011;12114;53.404;-1.502;2023-06-14T15:45:00;3.10;;;1.25;;
23866;SDS011;12114;53.404;-1.502;2023-06-14T15:47:44;2.85;;;1.20;;
23866;SDS011;12114;53.404;-1.502;2023-06-14T15:50:28;4.63;;;1.20;;
23866;SDS011;12114;53.404;-1.502;2023-06-14T15:53:12;5.60;;;1.33;;
23866;SDS011;12114;53.404;-1.502;2023-06-14T15:55:56;4.15;;;1.17;;
23866;SDS011;12114;53.404;-1.502;2023-06-14T15:58:40;6.50;;;1.38;;
23866;SDS011;12114;53.404;-1.502;2023-06-14T16:01:24;3.22;;;1.42;;
23866;SDS011;12114;53.404;-1.502;2023-06-14T16:04:08;6.43;;;1.45;;
23866;SDS011;12114;53.404;-1.502;2023-06-14T16:06:51;6.57;;;1.50;;
23866;SDS011;12114;53.404;-1.502;2023-06-14T16:09:36;6.47;;;1.48;;
23866;SDS011;12114;53.404;-1.502;2023-06-14T16:12:20;3.65;;;1.30;;
23866;SDS011;12114;53.404;-1.502;2023-06-14T16:15:05;5.13;;;1.30;;
23866;SDS011;12114;53.404;-1.502;2023-06-14T16:17:49;2.65;;;1.10;;
23866;SDS011;12114;53.404;-1.502;2023-06-14T16:20:33;8.48;;;1.42;;
23866;SDS011;12114;53.404;-1.502;2023-06-14T16:23:16;2.03;;;1.10;;
23866;SDS011;12114;53.404;-1.502;2023-06-14T16:26:00;4.15;;;1.33;;
23866;SDS011;12114;53.404;-1.502;2023-06-14T16:28:44;3.08;;;1.20;;
23866;SDS011;12114;53.404;-1.502;2023-06-14T16:31:29;3.92;;;1.40;;
23866;SDS011;12114;53.404;-1.502;2023-06-14T16:34:13;3.25;;;1.35;;
23866;SDS011;12114;53.404;-1.502;2023-06-14T16:36:59;4.40;;;1.63;;
23866;SDS011;12114;53.404;-1.502;2023-06-14T16:39:43;8.93;;;1.10;;
23866;SDS011;12114;53.404;-1.502;2023-06-14T16:42:27;2.63;;;1.20;;
23866;SDS011;12114;53.404;-1.502;2023-06-14T16:45:11;2.72;;;1.10;;
23866;SDS011;12114;53.404;-1.502;2023-06-14T16:47:55;8.57;;;1.13;;